createdAt,value
2019-04-01T00:01:42.881Z,3.40
2019-04-01T00:04:11.415Z,2.70
2019-04-01T00:06:40.002Z,2.73
2019-04-01T00:09:11.733Z,3.00
2019-04-01T00:11:40.363Z,4.10
2019-04-01T00:14:09.001Z,3.90
2019-04-01T00:16:37.577Z,2.67
2019-04-01T00:19:06.199Z,3.13
2019-04-01T00:21:34.927Z,3.10
2019-04-01T00:24:03.541Z,3.00
2019-04-01T00:26:32.153Z,2.67
2019-04-01T00:29:00.667Z,2.93
2019-04-01T00:31:29.275Z,3.00
2019-04-01T00:33:57.941Z,2.77
2019-04-01T00:36:26.518Z,2.67
2019-04-01T00:38:55.037Z,3.40
2019-04-01T00:41:26.725Z,2.97
2019-04-01T00:43:56.956Z,3.10
2019-04-01T00:46:25.567Z,3.63
2019-04-01T00:48:54.193Z,3.33
2019-04-01T00:51:22.901Z,2.23
2019-04-01T00:53:51.463Z,3.07
2019-04-01T00:56:20.093Z,3.20
2019-04-01T00:58:48.737Z,2.80
2019-04-01T01:01:17.679Z,2.47
2019-04-01T01:03:46.291Z,2.70
2019-04-01T01:06:14.899Z,2.60
2019-04-01T01:08:43.463Z,2.90
2019-04-01T01:11:12.192Z,3.47
2019-04-01T01:13:40.835Z,2.77
2019-04-01T01:16:09.643Z,3.13
2019-04-01T01:18:38.138Z,3.20
2019-04-01T01:21:06.695Z,4.20
2019-04-01T01:23:35.381Z,2.90
2019-04-01T01:26:04.041Z,2.67
2019-04-01T01:28:32.738Z,3.20
2019-04-01T01:31:01.257Z,2.80
2019-04-01T01:33:30.337Z,2.97
2019-04-01T01:35:58.953Z,3.47
2019-04-01T01:38:27.591Z,3.10
2019-04-01T01:40:56.145Z,2.90
2019-04-01T01:43:24.773Z,2.87
2019-04-01T01:45:53.415Z,3.00
2019-04-01T01:48:22.064Z,3.07
2019-04-01T01:50:50.717Z,3.07
2019-04-01T01:53:19.329Z,3.07
2019-04-01T01:55:47.921Z,2.90
2019-04-01T01:58:16.617Z,2.90
2019-04-01T02:00:45.179Z,3.17
2019-04-01T02:03:13.849Z,3.30
2019-04-01T02:05:42.433Z,2.90
2019-04-01T02:08:11.052Z,3.10
2019-04-01T02:10:39.733Z,2.70
2019-04-01T02:13:08.415Z,2.90
2019-04-01T02:15:37.046Z,2.80
2019-04-01T02:18:05.739Z,2.43
2019-04-01T02:20:34.395Z,3.00
2019-04-01T02:23:02.973Z,3.20
2019-04-01T02:25:31.521Z,3.37
2019-04-01T02:28:08.721Z,3.43
2019-04-01T03:19:12.735Z,2.90
2019-04-01T03:26:38.070Z,3.63
2019-04-01T04:23:28.139Z,3.20
2019-04-01T04:25:59.388Z,2.73
2019-04-01T04:28:27.945Z,2.70
2019-04-01T04:30:56.694Z,2.53
2019-04-01T04:33:25.159Z,2.53
2019-04-01T04:35:53.704Z,2.47
2019-04-01T04:38:22.369Z,2.80
2019-04-01T04:40:51.000Z,2.97
2019-04-01T04:43:19.620Z,2.77
2019-04-01T04:45:48.195Z,1.97
2019-04-01T04:48:16.725Z,2.70
2019-04-01T04:50:45.261Z,2.40
2019-04-01T04:53:13.894Z,2.43
2019-04-01T04:55:42.424Z,2.57
2019-04-01T04:58:10.892Z,2.97
2019-04-01T05:00:39.489Z,2.57
2019-04-01T05:03:08.093Z,2.17
2019-04-01T05:05:36.667Z,2.90
2019-04-01T05:08:05.346Z,3.13
2019-04-01T05:10:33.955Z,2.57
2019-04-01T05:13:02.504Z,2.63
2019-04-01T05:15:31.175Z,2.23
2019-04-01T05:17:59.646Z,2.63
2019-04-01T05:20:29.920Z,2.67
2019-04-01T05:22:58.892Z,2.20
2019-04-01T05:25:31.746Z,4.50
2019-04-01T05:28:01.055Z,4.13
2019-04-01T05:30:31.538Z,2.63
2019-04-01T05:33:02.914Z,3.17
2019-04-01T05:35:37.607Z,2.83
2019-04-01T05:38:07.380Z,2.70
2019-04-01T05:40:36.341Z,3.00
2019-04-01T05:43:05.465Z,3.10
2019-04-01T05:45:34.143Z,3.13
2019-04-01T05:48:02.974Z,2.73
2019-04-01T05:50:31.710Z,2.90
2019-04-01T05:53:00.381Z,2.90
2019-04-01T05:55:29.074Z,2.73
2019-04-01T05:57:58.463Z,2.33
2019-04-01T06:00:28.718Z,2.80
2019-04-01T06:02:58.044Z,2.97
2019-04-01T06:05:26.732Z,2.70
2019-04-01T06:07:55.466Z,2.67
2019-04-01T06:10:24.064Z,2.73
2019-04-01T06:12:52.666Z,3.83
2019-04-01T06:15:21.242Z,3.70
2019-04-01T06:17:49.915Z,2.57
2019-04-01T06:20:18.465Z,2.20
2019-04-01T06:22:47.086Z,3.17
2019-04-01T06:25:15.794Z,2.77
2019-04-01T06:27:44.597Z,3.17
2019-04-01T06:30:13.384Z,2.33
2019-04-01T06:32:42.095Z,2.50
2019-04-01T06:35:10.807Z,2.80
2019-04-01T06:37:39.387Z,2.70
2019-04-01T06:40:08.327Z,2.40
2019-04-01T06:42:37.203Z,3.03
2019-04-01T06:45:06.820Z,2.53
2019-04-01T06:47:35.538Z,2.43
2019-04-01T06:50:06.208Z,3.23
2019-04-01T06:52:34.967Z,2.80
2019-04-01T06:55:04.346Z,2.43
2019-04-01T06:57:33.088Z,4.10
2019-04-01T07:00:01.903Z,3.20
2019-04-01T07:02:30.608Z,2.60
2019-04-01T07:04:59.334Z,2.77
2019-04-01T07:07:28.135Z,3.30
2019-04-01T07:10:04.202Z,3.47
2019-04-01T07:12:32.944Z,3.17
2019-04-01T07:15:01.637Z,3.10
2019-04-01T07:17:33.361Z,3.57
2019-04-01T07:20:03.392Z,2.93
2019-04-01T07:22:32.143Z,3.47
2019-04-01T07:25:00.918Z,3.20
2019-04-01T07:27:29.633Z,3.10
2019-04-01T07:29:58.288Z,3.47
2019-04-01T07:32:27.629Z,3.53
2019-04-01T07:34:56.570Z,3.77
2019-04-01T07:37:25.242Z,3.63
2019-04-01T07:39:59.911Z,3.57
2019-04-01T07:42:39.380Z,3.73
2019-04-01T07:45:13.090Z,4.33
2019-04-01T07:47:47.597Z,3.20
2019-04-01T07:50:37.997Z,3.20
2019-04-01T07:53:12.646Z,3.80
2019-04-01T07:55:42.996Z,3.70
2019-04-01T07:58:27.366Z,3.60
2019-04-01T08:00:56.564Z,3.07
2019-04-01T08:03:25.487Z,3.87
2019-04-01T08:05:54.312Z,3.33
2019-04-01T08:08:27.695Z,4.00
2019-04-01T08:11:03.566Z,3.60
2019-04-01T08:13:32.296Z,3.73
2019-04-01T08:16:01.030Z,3.67
2019-04-01T08:18:33.688Z,3.50
2019-04-01T08:21:00.408Z,3.43
2019-04-01T08:23:30.091Z,3.63
2019-04-01T08:25:58.910Z,3.97
2019-04-01T08:28:27.452Z,4.30
2019-04-01T08:30:56.151Z,4.80
2019-04-01T08:33:27.547Z,3.80
2019-04-01T08:35:57.479Z,4.40
2019-04-01T08:38:26.218Z,4.40
2019-04-01T08:40:54.853Z,4.30
2019-04-01T08:43:23.572Z,4.17
2019-04-01T08:45:52.384Z,4.30
2019-04-01T08:48:21.110Z,4.33
2019-04-01T08:50:49.674Z,3.80
2019-04-01T08:53:21.436Z,4.40
2019-04-01T08:55:50.124Z,4.73
2019-04-01T08:58:19.313Z,4.63
2019-04-01T09:00:48.102Z,5.07
2019-04-01T09:03:16.764Z,4.47
2019-04-01T09:05:51.277Z,5.17
2019-04-01T09:08:45.984Z,5.20
2019-04-01T09:11:14.181Z,4.83
2019-04-01T09:13:43.730Z,4.20
2019-04-01T09:16:12.495Z,4.03
2019-04-01T09:18:41.269Z,4.40
2019-04-01T09:21:16.816Z,5.27
2019-04-01T09:23:45.690Z,5.80
2019-04-01T09:26:14.398Z,5.63
2019-04-01T09:28:43.080Z,4.97
2019-04-01T09:31:11.768Z,5.50
2019-04-01T09:33:43.450Z,5.40
2019-04-01T09:36:12.275Z,6.13
2019-04-01T09:38:43.754Z,5.30
2019-04-01T09:41:14.864Z,5.50
2019-04-01T09:43:45.202Z,6.13
2019-04-01T09:46:16.473Z,6.87
2019-04-01T09:48:56.256Z,6.03
2019-04-01T09:51:27.616Z,6.53
2019-04-01T09:53:56.462Z,6.67
2019-04-01T09:56:25.379Z,5.83
2019-04-01T09:58:53.994Z,5.40
2019-04-01T10:01:22.695Z,5.60
2019-04-01T10:03:51.393Z,6.90
2019-04-01T10:06:22.423Z,6.50
2019-04-01T10:08:51.277Z,6.53
2019-04-01T10:11:20.108Z,7.13
2019-04-01T10:13:49.029Z,6.60
2019-04-01T10:16:17.604Z,7.23
2019-04-01T10:18:46.374Z,7.70
2019-04-01T10:21:14.877Z,6.53
2019-04-01T10:23:43.586Z,7.57
2019-04-01T10:26:12.286Z,7.33
2019-04-01T10:28:42.745Z,7.63
2019-04-01T10:31:11.390Z,7.83
2019-04-01T10:33:40.043Z,7.63
2019-04-01T10:36:08.563Z,7.63
2019-04-01T10:38:37.253Z,7.93
2019-04-01T10:41:05.899Z,8.13
2019-04-01T10:43:34.567Z,7.97
2019-04-01T10:46:03.254Z,8.30
2019-04-01T10:48:32.020Z,8.07
2019-04-01T10:51:00.608Z,7.70
2019-04-01T10:53:29.400Z,8.80
2019-04-01T10:55:57.916Z,8.23
2019-04-01T10:58:26.499Z,8.97
2019-04-01T11:00:55.087Z,8.63
2019-04-01T11:03:23.702Z,9.40
2019-04-01T11:05:52.410Z,9.20
2019-04-01T11:08:21.070Z,9.07
2019-04-01T11:10:49.695Z,9.30
2019-04-01T11:13:22.000Z,10.17
2019-04-01T11:15:49.181Z,8.87
2019-04-01T11:18:17.876Z,9.33
2019-04-01T11:20:46.489Z,9.87
2019-04-01T11:23:15.004Z,11.97
2019-04-01T11:25:43.575Z,9.27
2019-04-01T11:28:12.340Z,9.73
2019-04-01T11:30:41.080Z,10.40
2019-04-01T11:33:09.944Z,10.80
2019-04-01T11:35:38.491Z,10.17
2019-04-01T11:38:07.261Z,10.57
2019-04-01T11:40:38.755Z,10.30
2019-04-01T11:43:06.271Z,10.43
2019-04-01T11:45:35.070Z,12.00
2019-04-01T11:48:03.864Z,11.47
2019-04-01T11:50:32.546Z,13.57
2019-04-01T11:53:01.349Z,11.53
2019-04-01T11:55:30.012Z,11.23
2019-04-01T11:57:58.722Z,12.50
2019-04-01T12:00:27.621Z,11.43
2019-04-01T12:02:56.314Z,11.40
2019-04-01T12:05:24.974Z,11.80
2019-04-01T12:07:53.761Z,12.50
2019-04-01T12:10:22.553Z,11.80
2019-04-01T12:12:51.433Z,11.97
2019-04-01T12:15:20.201Z,12.17
2019-04-01T12:17:48.859Z,12.13
2019-04-01T12:20:17.595Z,11.77
2019-04-01T12:22:46.374Z,12.60
2019-04-01T12:25:15.085Z,11.27
2019-04-01T12:27:45.110Z,12.17
2019-04-01T12:30:14.366Z,12.20
2019-04-01T12:32:42.931Z,13.40
2019-04-01T12:35:11.940Z,12.80
2019-04-01T12:37:40.673Z,13.27
2019-04-01T12:40:10.054Z,14.33
2019-04-01T12:42:38.691Z,13.57
2019-04-01T12:45:10.433Z,12.70
2019-04-01T12:47:42.916Z,13.60
2019-04-01T12:50:10.701Z,13.70
2019-04-01T12:52:39.505Z,13.63
2019-04-01T12:55:08.623Z,15.75
2019-04-01T12:57:37.373Z,13.85
2019-04-01T13:00:09.221Z,14.43
2019-04-01T13:02:37.893Z,14.90
2019-04-01T13:05:07.761Z,15.03
2019-04-01T13:07:36.978Z,15.20
2019-04-01T13:10:08.656Z,15.50
2019-04-01T13:12:37.365Z,14.45
2019-04-01T13:15:06.388Z,14.68
2019-04-01T13:17:35.082Z,14.73
2019-04-01T13:20:04.717Z,14.50
2019-04-01T13:22:33.383Z,14.95
2019-04-01T13:25:05.326Z,14.87
2019-04-01T13:27:32.423Z,15.43
2019-04-01T13:30:01.264Z,14.87
2019-04-01T13:32:29.992Z,14.87
2019-04-01T13:34:58.639Z,14.85
2019-04-01T13:37:27.449Z,15.05
2019-04-01T13:39:56.195Z,15.68
2019-04-01T13:42:25.173Z,15.38
2019-04-01T13:44:53.837Z,15.30
2019-04-01T13:47:22.527Z,14.83
2019-04-01T13:49:51.217Z,14.70
2019-04-01T13:52:19.859Z,14.25
2019-04-01T13:54:48.505Z,15.53
2019-04-01T13:57:17.199Z,14.45
2019-04-01T13:59:49.356Z,14.23
2019-04-01T14:02:16.101Z,14.25
2019-04-01T14:04:44.713Z,16.10
2019-04-01T14:07:13.424Z,15.48
2019-04-01T14:09:43.781Z,14.95
2019-04-01T14:12:12.397Z,15.15
2019-04-01T14:14:41.179Z,15.27
2019-04-01T14:17:09.752Z,14.90
2019-04-01T14:19:38.470Z,15.15
2019-04-01T14:22:07.057Z,15.93
2019-04-01T14:24:35.691Z,16.23
2019-04-01T14:27:04.281Z,15.10
2019-04-01T14:29:32.991Z,16.32
2019-04-01T14:32:01.570Z,15.60
2019-04-01T14:34:30.303Z,15.50
2019-04-01T14:36:58.949Z,14.90
2019-04-01T14:39:27.594Z,17.02
2019-04-01T14:41:56.355Z,15.98
2019-04-01T14:44:24.974Z,15.72
2019-04-01T14:46:53.812Z,16.45
2019-04-01T14:49:22.480Z,14.73
2019-04-01T14:51:51.192Z,14.28
2019-04-01T14:54:20.791Z,15.25
2019-04-01T14:56:49.627Z,14.83
2019-04-01T14:59:18.246Z,15.03
2019-04-01T15:01:46.950Z,16.32
2019-04-01T15:04:15.569Z,15.78
2019-04-01T15:06:45.036Z,16.00
2019-04-01T15:09:14.023Z,15.75
2019-04-01T15:11:42.569Z,15.53
2019-04-01T15:14:11.311Z,15.95
2019-04-01T15:16:40.060Z,15.90
2019-04-01T15:19:12.506Z,16.55
2019-04-01T15:21:39.339Z,16.77
2019-04-01T15:24:08.193Z,16.50
2019-04-01T15:26:36.760Z,15.65
2019-04-01T15:29:05.593Z,16.50
2019-04-01T15:31:34.231Z,16.67
2019-04-01T15:34:02.981Z,16.97
2019-04-01T15:36:31.551Z,16.75
2019-04-01T15:39:00.231Z,16.12
2019-04-01T15:41:28.800Z,17.00
2019-04-01T15:43:57.392Z,15.98
2019-04-01T15:46:26.219Z,16.52
2019-04-01T15:51:43.742Z,16.62
2019-04-01T15:54:12.412Z,16.45
2019-04-01T15:56:41.968Z,17.70
2019-04-01T15:59:11.276Z,16.42
2019-04-01T16:01:39.890Z,18.17
2019-04-01T16:04:11.832Z,16.10
2019-04-01T16:06:40.470Z,17.48
2019-04-01T16:09:09.176Z,17.25
2019-04-01T16:11:37.774Z,17.07
2019-04-01T16:14:06.606Z,16.97
2019-04-01T16:16:36.164Z,17.07
2019-04-01T16:19:08.670Z,16.43
2019-04-01T16:21:43.949Z,16.97
2019-04-01T16:24:17.078Z,17.00
2019-04-01T16:26:45.624Z,18.30
2019-04-01T16:29:14.325Z,18.27
2019-04-01T16:31:43.023Z,17.93
2019-04-01T16:34:11.818Z,17.45
2019-04-01T16:36:40.581Z,17.47
2019-04-01T16:39:09.330Z,17.63
2019-04-01T16:41:38.032Z,17.77
2019-04-01T16:44:06.875Z,17.67
2019-04-01T16:46:35.628Z,17.47
2019-04-01T16:49:04.420Z,18.77
2019-04-01T16:51:33.064Z,17.73
2019-04-01T16:54:01.823Z,17.73
2019-04-01T16:56:30.374Z,18.23
2019-04-01T16:58:59.136Z,17.37
2019-04-01T17:01:28.836Z,16.70
2019-04-01T17:03:57.384Z,18.23
2019-04-01T17:06:26.177Z,18.60
2019-04-01T17:08:55.004Z,17.83
2019-04-01T17:11:23.723Z,16.70
2019-04-01T17:13:52.486Z,17.40
2019-04-01T17:16:29.052Z,17.30
2019-04-01T17:19:10.316Z,17.47
2019-04-01T17:21:38.952Z,18.33
2019-04-01T17:24:10.631Z,17.60
2019-04-01T17:26:51.425Z,17.87
2019-04-01T17:29:20.132Z,17.97
2019-04-01T17:31:50.954Z,17.37
2019-04-01T17:34:28.341Z,17.17
2019-04-01T17:36:57.401Z,17.17
2019-04-01T17:39:28.849Z,17.77
2019-04-01T17:41:57.523Z,16.57
2019-04-01T17:44:39.058Z,17.73
2019-04-01T17:47:07.861Z,17.47
2019-04-01T17:49:36.601Z,17.80
2019-04-01T17:52:05.462Z,17.90
2019-04-01T17:54:34.095Z,16.97
2019-04-01T17:57:02.846Z,17.77
2019-04-01T17:59:31.519Z,18.80
2019-04-01T18:02:00.341Z,17.30
2019-04-01T18:04:30.945Z,17.37
2019-04-01T18:06:59.865Z,17.67
2019-04-01T18:09:28.624Z,18.00
2019-04-01T18:11:57.310Z,17.73
2019-04-01T18:14:25.959Z,17.87
2019-04-01T18:16:54.623Z,18.47
2019-04-01T18:19:23.507Z,17.90
2019-04-01T18:21:52.239Z,18.57
2019-04-01T18:24:20.941Z,19.40
2019-04-01T18:26:53.667Z,19.00
2019-04-01T18:29:35.811Z,19.17
2019-04-01T18:32:04.593Z,18.07
2019-04-01T18:34:33.411Z,19.70
2019-04-01T18:37:02.439Z,19.23
2019-04-01T18:39:47.948Z,19.23
2019-04-01T18:42:11.432Z,25.93
2019-04-01T18:44:40.357Z,20.93
2019-04-01T18:47:09.623Z,19.80
2019-04-01T18:49:38.687Z,19.73
2019-04-01T18:52:07.221Z,19.17
2019-04-01T18:54:35.937Z,18.97
2019-04-01T18:57:04.649Z,19.30
2019-04-01T18:59:33.339Z,19.10
2019-04-01T19:02:02.007Z,18.67
2019-04-01T19:04:30.653Z,19.67
2019-04-01T19:06:59.432Z,18.53
2019-04-01T19:09:28.071Z,19.23
2019-04-01T19:12:03.895Z,18.40
2019-04-01T19:14:26.867Z,19.63
2019-04-01T19:16:55.451Z,19.33
2019-04-01T19:19:24.047Z,21.27
2019-04-01T19:21:52.795Z,20.47
2019-04-01T19:24:21.564Z,21.40
2019-04-01T19:26:50.150Z,24.70
2019-04-01T19:29:18.842Z,23.93
2019-04-01T19:31:51.099Z,23.90
2019-04-01T19:34:18.312Z,23.23
2019-04-01T19:36:46.940Z,21.90
2019-04-01T19:39:15.546Z,22.10
2019-04-01T19:41:44.220Z,20.87
2019-04-01T19:44:14.137Z,22.03
2019-04-01T19:46:43.121Z,20.70
2019-04-01T19:49:13.364Z,22.07
2019-04-01T19:51:41.981Z,20.23
2019-04-01T19:54:10.716Z,20.63
2019-04-01T19:56:40.886Z,20.50
2019-04-01T19:59:09.600Z,19.67
2019-04-01T20:01:38.615Z,19.97
2019-04-01T20:04:07.358Z,19.77
2019-04-01T20:06:40.803Z,19.43
2019-04-01T20:09:09.898Z,20.90
2019-04-01T20:11:38.456Z,20.57
2019-04-01T20:14:07.192Z,20.07
2019-04-01T20:16:35.837Z,19.77
2019-04-01T20:19:05.409Z,19.53
2019-04-01T20:21:34.408Z,19.10
2019-04-01T20:24:03.081Z,20.17
2019-04-01T20:26:33.460Z,20.83
2019-04-01T20:29:02.195Z,19.40
2019-04-01T20:31:30.817Z,19.30
2019-04-01T20:33:59.588Z,20.63
2019-04-01T20:36:29.206Z,18.47
2019-04-01T20:38:58.589Z,20.07
2019-04-01T20:41:27.289Z,22.17
2019-04-01T20:43:55.866Z,20.77
2019-04-01T20:46:24.541Z,20.50
2019-04-01T20:48:53.174Z,20.10
2019-04-01T20:51:21.885Z,19.63
2019-04-01T20:53:51.344Z,20.80
2019-04-01T20:56:20.265Z,19.10
2019-04-01T20:58:49.444Z,19.23
2019-04-01T21:01:18.128Z,19.33
2019-04-01T21:03:46.839Z,20.53
2019-04-01T21:06:15.418Z,18.93
2019-04-01T21:08:44.112Z,19.43
2019-04-01T21:11:12.734Z,20.67
2019-04-01T21:13:41.302Z,19.67
2019-04-01T21:16:09.888Z,19.53
2019-04-01T21:18:38.524Z,20.43
2019-04-01T21:21:07.128Z,20.83
2019-04-01T21:23:36.066Z,20.93
2019-04-01T21:26:05.192Z,20.47
2019-04-01T21:28:33.820Z,19.80
2019-04-01T21:31:02.474Z,19.30
2019-04-01T21:33:31.043Z,19.30
2019-04-01T21:35:59.594Z,20.13
2019-04-01T21:38:28.180Z,20.80
2019-04-01T21:40:57.139Z,19.23
2019-04-01T21:43:25.692Z,20.83
2019-04-01T21:45:57.102Z,19.47
2019-04-01T21:48:25.802Z,19.50
2019-04-01T21:50:54.426Z,20.43
2019-04-01T21:53:23.174Z,19.93
2019-04-01T21:55:51.880Z,20.23
2019-04-01T21:58:20.507Z,20.87
2019-04-01T22:00:55.876Z,19.53
2019-04-01T22:03:24.564Z,19.30
2019-04-01T22:05:53.199Z,20.50
2019-04-01T22:08:21.854Z,20.67
2019-04-01T22:10:52.833Z,19.53
2019-04-01T22:13:21.455Z,18.67
2019-04-01T22:15:50.562Z,20.30
2019-04-01T22:18:19.301Z,19.97
2019-04-01T22:20:47.909Z,19.23
2019-04-01T22:23:16.550Z,19.67
2019-04-01T22:25:45.115Z,20.30
2019-04-01T22:28:13.654Z,21.20
2019-04-01T22:30:42.234Z,20.70
2019-04-01T22:33:11.218Z,20.70
2019-04-01T22:35:41.551Z,19.67
2019-04-01T22:38:10.540Z,20.20
2019-04-01T22:40:39.202Z,20.77
2019-04-01T22:43:07.736Z,20.77
2019-04-01T22:45:36.394Z,21.03
2019-04-01T22:48:05.265Z,21.67
2019-04-01T22:50:36.788Z,21.20
2019-04-01T22:53:08.508Z,20.83
2019-04-01T22:55:37.274Z,21.17
2019-04-01T22:58:08.125Z,21.37
2019-04-01T23:00:38.236Z,20.57
2019-04-01T23:03:11.280Z,20.20
2019-04-01T23:05:39.325Z,21.00
2019-04-01T23:08:08.263Z,21.17
2019-04-01T23:10:36.812Z,21.73
2019-04-01T23:13:05.540Z,21.37
2019-04-01T23:15:34.140Z,21.10
2019-04-01T23:18:02.873Z,21.67
2019-04-01T23:20:33.250Z,20.77
2019-04-01T23:23:01.637Z,21.17
2019-04-01T23:25:30.292Z,21.70
2019-04-01T23:27:58.952Z,22.77
2019-04-01T23:30:27.739Z,21.87
2019-04-01T23:32:56.401Z,19.80
2019-04-01T23:35:25.048Z,21.13
2019-04-01T23:37:53.715Z,21.13
2019-04-01T23:40:22.335Z,21.33
2019-04-01T23:42:50.900Z,20.70
2019-04-01T23:45:20.114Z,21.17
2019-04-01T23:47:49.612Z,21.57
2019-04-01T23:50:18.228Z,21.60
2019-04-01T23:52:46.807Z,21.83
2019-04-01T23:55:15.515Z,22.13
2019-04-01T23:57:44.074Z,22.30
